createdAt,value
2019-03-04T00:00:59.446Z,82.08
2019-03-04T00:03:34.487Z,82.25
2019-03-04T00:06:08.639Z,82.30
2019-03-04T00:08:42.134Z,82.17
2019-03-04T00:11:15.618Z,81.90
2019-03-04T00:13:49.323Z,81.75
2019-03-04T00:16:22.833Z,81.62
2019-03-04T00:18:57.205Z,81.56
2019-03-04T00:21:39.482Z,81.62
2019-03-04T00:24:24.082Z,81.48
2019-03-04T00:26:57.451Z,81.33
2019-03-04T00:29:30.868Z,81.15
2019-03-04T00:32:04.350Z,80.99
2019-03-04T00:34:37.804Z,81.22
2019-03-04T00:37:20.122Z,80.97
2019-03-04T00:39:53.516Z,80.98
2019-03-04T00:42:28.265Z,80.73
2019-03-04T00:45:01.983Z,80.78
2019-03-04T00:47:36.260Z,80.66
2019-03-04T00:50:18.985Z,80.64
2019-03-04T00:52:53.085Z,80.67
2019-03-04T00:55:34.956Z,80.49
2019-03-04T00:58:08.094Z,80.52
2019-03-04T01:00:41.749Z,80.54
2019-03-04T01:03:15.458Z,80.65
2019-03-04T01:05:49.020Z,80.31
2019-03-04T01:08:22.877Z,80.14
2019-03-04T01:10:56.694Z,80.46
2019-03-04T01:13:30.682Z,80.47
2019-03-04T01:16:03.902Z,79.86
2019-03-04T01:18:37.682Z,79.61
2019-03-04T01:21:11.274Z,79.57
2019-03-04T01:23:45.129Z,79.59
2019-03-04T01:26:27.545Z,79.57
2019-03-04T01:29:00.720Z,79.52
2019-03-04T01:31:34.118Z,79.66
2019-03-04T01:34:07.224Z,79.56
2019-03-04T01:36:41.892Z,79.35
2019-03-04T01:39:15.639Z,79.62
2019-03-04T01:41:51.283Z,80.20
2019-03-04T01:44:34.851Z,80.33
2019-03-04T01:47:08.420Z,80.13
2019-03-04T01:49:42.330Z,79.93
2019-03-04T01:52:19.086Z,79.71
2019-03-04T01:54:53.040Z,79.31
2019-03-04T01:57:26.257Z,79.24
2019-03-04T01:59:59.338Z,79.11
2019-03-04T02:02:32.897Z,78.93
2019-03-04T02:05:17.822Z,78.61
2019-03-04T02:08:01.189Z,78.50
2019-03-04T02:10:35.057Z,78.38
2019-03-04T02:13:10.955Z,78.42
2019-03-04T02:15:44.435Z,78.67
2019-03-04T02:18:18.358Z,78.41
2019-03-04T02:21:00.796Z,78.00
2019-03-04T02:23:34.264Z,77.87
2019-03-04T02:26:11.191Z,77.57
2019-03-04T02:28:45.259Z,77.12
2019-03-04T02:31:19.364Z,77.11
2019-03-04T02:33:52.714Z,77.18
2019-03-04T02:36:34.830Z,77.14
2019-03-04T02:39:09.046Z,77.07
2019-03-04T02:41:43.165Z,76.83
2019-03-04T02:44:17.140Z,77.01
2019-03-04T02:46:51.224Z,76.90
2019-03-04T02:49:33.822Z,76.84
2019-03-04T02:52:07.205Z,77.03
2019-03-04T02:54:40.340Z,77.05
2019-03-04T02:57:13.761Z,76.68
2019-03-04T02:59:47.914Z,76.64
2019-03-04T03:02:22.129Z,77.00
2019-03-04T03:05:04.605Z,76.93
2019-03-04T03:07:38.135Z,76.44
2019-03-04T03:10:12.912Z,76.29
2019-03-04T03:12:46.122Z,76.46
2019-03-04T03:15:20.551Z,76.96
2019-03-04T03:17:53.913Z,77.26
2019-03-04T03:20:27.570Z,77.26
2019-03-04T03:23:01.046Z,77.56
2019-03-04T03:25:34.594Z,77.66
2019-03-04T03:28:07.968Z,77.48
2019-03-04T03:30:42.135Z,77.26
2019-03-04T03:33:16.000Z,77.00
2019-03-04T03:35:58.726Z,76.92
2019-03-04T03:38:31.886Z,76.94
2019-03-04T03:41:09.761Z,76.68
2019-03-04T03:43:43.348Z,76.61
2019-03-04T03:46:16.763Z,76.86
2019-03-04T03:48:59.368Z,77.02
2019-03-04T03:51:41.933Z,76.36
2019-03-04T03:54:15.092Z,76.19
2019-03-04T03:56:48.233Z,75.95
2019-03-04T03:59:30.748Z,76.00
2019-03-04T04:02:13.600Z,75.64
2019-03-04T04:04:56.740Z,75.77
2019-03-04T04:07:30.706Z,75.39
2019-03-04T04:10:04.037Z,75.19
2019-03-04T04:12:38.548Z,75.32
2019-03-04T04:15:12.055Z,75.36
2019-03-04T04:17:45.270Z,75.66
2019-03-04T04:20:18.844Z,75.43
2019-03-04T04:22:52.472Z,75.31
2019-03-04T04:25:26.044Z,75.15
2019-03-04T04:27:59.885Z,74.72
2019-03-04T04:30:33.764Z,74.53
2019-03-04T04:33:07.432Z,74.58
2019-03-04T04:35:41.337Z,74.48
2019-03-04T04:38:35.479Z,74.66
2019-03-04T04:41:09.004Z,74.65
2019-03-04T04:43:42.687Z,74.88
2019-03-04T04:46:16.254Z,74.87
2019-03-04T04:49:00.335Z,74.47
2019-03-04T04:51:33.802Z,74.52
2019-03-04T04:54:07.315Z,74.16
2019-03-04T04:56:40.795Z,74.14
2019-03-04T04:59:14.700Z,73.63
2019-03-04T05:01:48.501Z,73.52
2019-03-04T05:04:21.731Z,73.22
2019-03-04T05:06:55.189Z,73.51
2019-03-04T05:09:28.569Z,73.64
2019-03-04T05:12:02.123Z,73.75
2019-03-04T05:14:35.856Z,73.77
2019-03-04T05:17:09.242Z,73.98
2019-03-04T05:19:52.176Z,73.96
2019-03-04T05:22:25.639Z,73.61
2019-03-04T05:25:07.811Z,73.37
2019-03-04T05:27:41.401Z,73.81
2019-03-04T05:30:16.903Z,73.77
2019-03-04T05:32:59.659Z,74.15
2019-03-04T05:35:33.212Z,74.51
2019-03-04T05:38:06.378Z,74.18
2019-03-04T05:40:39.782Z,73.95
2019-03-04T05:43:13.250Z,73.77
2019-03-04T05:45:46.391Z,74.14
2019-03-04T05:48:29.065Z,73.39
2019-03-04T05:51:02.696Z,73.37
2019-03-04T05:53:35.859Z,73.13
2019-03-04T05:56:09.571Z,72.81
2019-03-04T05:58:42.971Z,73.00
2019-03-04T06:01:25.024Z,72.68
2019-03-04T06:04:00.776Z,72.40
2019-03-04T06:06:51.431Z,72.55
2019-03-04T06:09:25.853Z,72.60
2019-03-04T06:11:58.973Z,72.78
2019-03-04T06:14:43.065Z,72.57
2019-03-04T06:17:27.521Z,72.56
2019-03-04T06:20:00.740Z,72.71
2019-03-04T06:22:35.662Z,72.34
2019-03-04T06:25:12.248Z,72.01
2019-03-04T06:27:47.666Z,71.83
2019-03-04T06:30:23.718Z,71.62
2019-03-04T06:33:08.452Z,71.29
2019-03-04T06:35:41.617Z,71.53
2019-03-04T06:38:15.415Z,71.24
2019-03-04T06:40:49.501Z,71.43
2019-03-04T06:43:22.908Z,71.08
2019-03-04T06:45:56.507Z,71.05
2019-03-04T06:48:30.621Z,70.56
2019-03-04T06:51:04.815Z,70.75
2019-03-04T06:54:04.402Z,70.40
2019-03-04T06:56:58.843Z,70.28
2019-03-04T07:00:19.132Z,70.19
2019-03-04T07:02:54.655Z,70.29
2019-03-04T07:05:53.567Z,70.10
2019-03-04T07:09:16.990Z,69.65
2019-03-04T07:11:54.061Z,69.39
2019-03-04T07:14:27.616Z,69.27
2019-03-04T07:17:10.359Z,69.59
2019-03-04T07:19:43.784Z,69.01
2019-03-04T07:22:17.599Z,68.76
2019-03-04T07:24:54.710Z,67.79
2019-03-04T07:27:29.018Z,67.63
2019-03-04T07:30:02.484Z,67.86
2019-03-04T07:32:48.393Z,66.85
2019-03-04T07:35:22.301Z,66.99
2019-03-04T07:38:36.699Z,66.77
2019-03-04T07:41:10.259Z,66.88
2019-03-04T07:43:43.380Z,66.53
2019-03-04T07:46:16.467Z,65.90
2019-03-04T07:48:58.652Z,65.63
2019-03-04T07:51:31.866Z,65.47
2019-03-04T07:54:06.072Z,66.00
2019-03-04T07:56:39.308Z,65.70
2019-03-04T07:59:12.442Z,66.11
2019-03-04T08:02:00.774Z,67.15
2019-03-04T08:04:33.948Z,70.84
2019-03-04T08:07:41.682Z,75.90
2019-03-04T08:10:50.505Z,78.99
2019-03-04T08:13:30.345Z,80.68
2019-03-04T08:16:03.162Z,81.61
2019-03-04T08:18:36.693Z,82.61
2019-03-04T08:21:10.667Z,83.94
2019-03-04T08:23:43.953Z,84.55
2019-03-04T08:26:17.456Z,84.94
2019-03-04T08:28:50.983Z,85.07
2019-03-04T08:31:24.320Z,85.11
2019-03-04T08:33:58.127Z,84.65
2019-03-04T08:36:31.783Z,83.85
2019-03-04T08:39:08.214Z,83.23
2019-03-04T08:41:42.338Z,82.43
2019-03-04T08:44:15.588Z,82.46
2019-03-04T08:46:48.668Z,82.75
2019-03-04T08:49:23.302Z,82.85
2019-03-04T08:51:56.680Z,83.09
2019-03-04T08:54:29.888Z,83.85
2019-03-04T08:57:04.296Z,85.07
2019-03-04T08:59:37.876Z,86.01
2019-03-04T09:02:11.413Z,86.56
2019-03-04T09:04:43.407Z,87.08
2019-03-04T09:07:17.464Z,87.19
2019-03-04T09:10:00.351Z,87.16
2019-03-04T09:12:35.972Z,86.91
2019-03-04T09:15:19.834Z,86.88
2019-03-04T09:18:02.082Z,86.25
2019-03-04T09:20:35.494Z,85.63
2019-03-04T09:23:09.014Z,84.67
2019-03-04T09:25:51.369Z,84.10
2019-03-04T09:28:24.968Z,84.35
2019-03-04T09:30:56.759Z,83.97
2019-03-04T09:33:31.318Z,83.46
2019-03-04T09:36:04.420Z,82.26
2019-03-04T09:38:47.207Z,81.77
2019-03-04T09:41:29.357Z,81.04
2019-03-04T09:44:03.001Z,80.97
2019-03-04T09:46:36.100Z,80.28
2019-03-04T09:49:09.234Z,80.66
2019-03-04T09:51:51.792Z,80.49
2019-03-04T09:54:25.653Z,79.58
2019-03-04T09:57:08.210Z,79.23
2019-03-04T09:59:41.495Z,78.65
2019-03-04T10:02:25.672Z,78.32
2019-03-04T10:05:54.783Z,78.03
2019-03-04T10:08:56.568Z,77.40
2019-03-04T10:12:23.361Z,76.64
2019-03-04T10:15:44.809Z,75.83
2019-03-04T10:18:58.545Z,75.48
2019-03-04T10:21:53.249Z,74.65
2019-03-04T10:25:11.108Z,73.79
2019-03-04T10:28:50.901Z,72.32
2019-03-04T10:32:10.248Z,72.15
2019-03-04T10:35:06.114Z,71.47
2019-03-04T10:38:22.805Z,70.61
2019-03-04T10:41:13.030Z,69.78
2019-03-04T10:44:21.512Z,69.56
2019-03-04T10:47:06.126Z,69.16
2019-03-04T10:49:39.714Z,68.99
2019-03-04T10:52:12.826Z,68.97
2019-03-04T10:54:46.295Z,68.84
2019-03-04T10:57:28.158Z,68.13
2019-03-04T11:00:16.830Z,68.09
2019-03-04T11:02:50.442Z,67.21
2019-03-04T11:05:23.570Z,66.00
2019-03-04T11:08:08.168Z,65.48
2019-03-04T11:10:41.289Z,65.90
2019-03-04T11:13:14.902Z,65.40
2019-03-04T11:15:48.091Z,65.19
2019-03-04T11:18:30.253Z,65.59
2019-03-04T11:21:03.372Z,66.14
2019-03-04T11:23:37.190Z,67.77
2019-03-04T11:26:10.310Z,69.25
2019-03-04T11:28:43.902Z,70.23
2019-03-04T11:31:17.390Z,70.62
2019-03-04T11:33:50.505Z,70.35
2019-03-04T11:36:23.976Z,69.95
2019-03-04T11:39:05.533Z,70.10
2019-03-04T11:41:41.428Z,69.92
2019-03-04T11:44:14.963Z,70.00
2019-03-04T11:46:57.091Z,70.60
2019-03-04T11:49:30.232Z,70.90
2019-03-04T11:52:02.957Z,71.53
2019-03-04T11:54:45.170Z,72.36
2019-03-04T11:57:18.664Z,73.78
2019-03-04T12:00:03.045Z,78.11
2019-03-04T12:02:39.207Z,80.03
2019-03-04T12:05:11.881Z,81.43
2019-03-04T12:07:45.088Z,82.55
2019-03-04T12:10:28.151Z,82.55
2019-03-04T12:13:01.388Z,81.53
2019-03-04T12:15:34.554Z,80.28
2019-03-04T12:18:07.913Z,79.69
2019-03-04T12:20:52.511Z,79.40
2019-03-04T12:23:25.732Z,78.04
2019-03-04T12:25:58.915Z,75.25
2019-03-04T12:28:40.956Z,74.22
2019-03-04T12:31:14.164Z,74.01
2019-03-04T12:33:47.249Z,72.96
2019-03-04T12:36:29.675Z,71.92
2019-03-04T12:39:02.817Z,70.88
2019-03-04T12:41:37.808Z,71.27
2019-03-04T12:44:11.056Z,71.85
2019-03-04T12:46:53.564Z,72.21
2019-03-04T12:49:26.752Z,72.45
2019-03-04T12:52:01.399Z,72.44
2019-03-04T12:54:34.884Z,71.14
2019-03-04T12:57:17.199Z,70.80
2019-03-04T12:59:50.604Z,71.63
2019-03-04T13:02:25.219Z,71.35
2019-03-04T13:04:59.076Z,70.92
2019-03-04T13:07:32.201Z,69.42
2019-03-04T13:10:14.246Z,68.26
2019-03-04T13:12:47.380Z,67.15
2019-03-04T13:15:22.329Z,65.94
2019-03-04T13:17:56.028Z,65.18
2019-03-04T13:20:29.588Z,65.74
2019-03-04T13:23:02.911Z,65.91
2019-03-04T13:25:45.239Z,66.17
2019-03-04T13:28:18.760Z,66.56
2019-03-04T13:30:51.934Z,66.67
2019-03-04T13:33:25.395Z,66.03
2019-03-04T13:35:58.902Z,66.03
2019-03-04T13:38:32.187Z,66.64
2019-03-04T13:41:14.633Z,66.81
2019-03-04T13:43:47.758Z,66.76
2019-03-04T13:46:20.877Z,67.08
2019-03-04T13:48:55.739Z,67.47
2019-03-04T13:51:38.120Z,68.24
2019-03-04T13:54:11.237Z,67.42
2019-03-04T13:56:44.380Z,67.71
2019-03-04T13:59:29.168Z,67.72
2019-03-04T14:02:02.318Z,67.69
2019-03-04T14:04:46.012Z,67.12
2019-03-04T14:07:19.505Z,66.95
2019-03-04T14:09:52.616Z,67.02
2019-03-04T14:12:25.706Z,67.68
2019-03-04T14:15:10.539Z,67.45
2019-03-04T14:17:46.024Z,69.86
2019-03-04T14:20:19.237Z,73.22
2019-03-04T14:22:57.611Z,75.35
2019-03-04T14:25:28.500Z,75.34
2019-03-04T14:28:01.873Z,74.54
2019-03-04T14:30:45.769Z,73.72
2019-03-04T14:33:29.312Z,73.64
2019-03-04T14:36:03.166Z,73.64
2019-03-04T14:38:37.401Z,73.49
2019-03-04T15:03:58.018Z,67.77
2019-03-04T15:06:32.015Z,67.35
2019-03-04T15:09:14.150Z,66.93
2019-03-04T15:22:34.967Z,66.54
2019-03-04T15:25:07.110Z,66.73
2019-03-04T15:27:41.075Z,67.50
2019-03-04T15:30:59.109Z,68.06
2019-03-04T15:33:35.228Z,68.00
2019-03-04T15:48:07.869Z,70.71
2019-03-04T15:50:41.461Z,71.55
2019-03-04T15:53:17.417Z,71.29
2019-03-04T15:55:54.884Z,71.47
2019-03-04T15:58:29.966Z,71.46
2019-03-04T16:01:30.993Z,71.37
2019-03-04T16:04:08.365Z,71.57
2019-03-04T16:06:50.764Z,71.72
2019-03-04T16:09:29.819Z,72.05
2019-03-04T16:12:03.771Z,72.16
2019-03-04T16:14:38.600Z,72.58
2019-03-04T16:17:17.916Z,72.94
2019-03-04T16:19:50.544Z,73.08
2019-03-04T16:22:24.741Z,73.66
2019-03-04T16:25:07.537Z,73.95
2019-03-04T16:27:54.701Z,74.71
2019-03-04T16:34:26.098Z,77.08
2019-03-04T16:47:32.851Z,79.71
2019-03-04T16:50:08.325Z,80.14
2019-03-04T16:52:42.881Z,80.08
2019-03-04T16:55:16.072Z,80.00
2019-03-04T16:57:50.096Z,79.49
2019-03-04T17:00:23.599Z,78.79
2019-03-04T17:02:57.270Z,78.54
2019-03-04T17:05:30.751Z,77.87
2019-03-04T17:08:04.553Z,77.36
2019-03-04T17:10:38.088Z,76.76
2019-03-04T17:13:11.734Z,76.49
2019-03-04T17:15:45.397Z,76.62
2019-03-04T17:18:19.083Z,77.19
2019-03-04T17:20:52.782Z,77.59
2019-03-04T17:23:26.341Z,77.89
2019-03-04T17:26:00.292Z,77.64
2019-03-04T17:28:33.686Z,75.68
2019-03-04T17:31:17.023Z,73.96
2019-03-04T17:33:59.836Z,73.48
2019-03-04T17:36:33.462Z,73.10
2019-03-04T17:39:09.057Z,72.07
2019-03-04T17:41:41.889Z,70.88
2019-03-04T17:44:21.849Z,70.53
2019-03-04T17:46:55.104Z,69.74
2019-03-04T17:49:28.667Z,69.38
2019-03-04T17:52:02.462Z,69.44
2019-03-04T17:54:35.657Z,68.83
2019-03-04T17:57:10.139Z,69.02
2019-03-04T17:59:43.423Z,68.77
2019-03-04T18:02:17.216Z,67.41
2019-03-04T18:04:51.539Z,67.83
2019-03-04T18:07:33.906Z,67.66
2019-03-04T18:10:09.399Z,67.89
2019-03-04T18:12:53.230Z,67.68
2019-03-04T18:15:27.094Z,66.99
2019-03-04T18:18:00.993Z,67.00
2019-03-04T18:20:43.524Z,66.68
2019-03-04T18:23:18.115Z,66.86
2019-03-04T18:25:59.113Z,66.41
2019-03-04T18:29:04.980Z,66.46
2019-03-04T18:32:27.770Z,66.23
2019-03-04T18:35:23.572Z,65.92
2019-03-04T18:38:53.368Z,65.87
2019-03-04T18:42:03.567Z,66.17
2019-03-04T18:45:13.935Z,65.76
2019-03-04T18:48:24.705Z,65.15
2019-03-04T18:51:07.154Z,64.82
2019-03-04T18:53:41.373Z,65.23
2019-03-04T18:56:30.186Z,64.50
2019-03-04T18:59:03.756Z,64.58
2019-03-04T19:01:46.809Z,64.53
2019-03-04T19:04:20.543Z,64.32
2019-03-04T19:06:54.705Z,63.94
2019-03-04T19:09:28.541Z,63.21
2019-03-04T19:12:02.737Z,63.44
2019-03-04T19:14:35.978Z,63.39
2019-03-04T19:17:20.110Z,62.82
2019-03-04T19:20:01.974Z,62.79
2019-03-04T19:22:35.859Z,63.20
2019-03-04T19:25:09.223Z,62.96
2019-03-04T19:27:43.007Z,63.00
2019-03-04T19:30:16.351Z,63.57
2019-03-04T19:32:49.575Z,63.29
2019-03-04T19:35:23.153Z,63.63
2019-03-04T19:37:56.814Z,63.93
2019-03-04T19:40:30.407Z,64.51
2019-03-04T19:43:04.466Z,65.00
2019-03-04T19:45:38.195Z,65.01
2019-03-04T19:48:12.191Z,65.46
2019-03-04T19:50:54.880Z,65.61
2019-03-04T19:53:28.471Z,65.67
2019-03-04T19:56:02.310Z,66.17
2019-03-04T19:58:50.698Z,65.89
2019-03-04T20:01:24.709Z,65.97
2019-03-04T20:04:06.840Z,66.07
2019-03-04T20:06:40.103Z,65.86
2019-03-04T20:09:13.607Z,66.08
2019-03-04T20:11:47.807Z,66.17
2019-03-04T20:14:22.814Z,66.28
2019-03-04T20:16:57.457Z,66.18
2019-03-04T20:19:30.639Z,66.43
2019-03-04T20:22:14.306Z,66.61
2019-03-04T20:25:01.223Z,66.66
2019-03-04T20:27:37.679Z,66.89
2019-03-04T20:30:11.300Z,67.03
2019-03-04T20:32:46.422Z,67.15
2019-03-04T20:35:21.321Z,67.28
2019-03-04T20:37:56.011Z,67.35
2019-03-04T20:40:38.289Z,67.46
2019-03-04T20:43:11.736Z,67.66
2019-03-04T20:45:45.136Z,67.68
2019-03-04T20:48:18.354Z,67.47
2019-03-04T20:50:53.676Z,67.57
2019-03-04T20:53:26.877Z,67.62
2019-03-04T20:56:09.620Z,68.03
2019-03-04T20:58:42.698Z,68.14
2019-03-04T21:01:16.334Z,68.45
2019-03-04T21:03:51.303Z,68.50
2019-03-04T21:06:26.901Z,68.98
2019-03-04T21:09:00.269Z,69.27
2019-03-04T21:11:42.873Z,69.49
2019-03-04T21:14:16.712Z,69.71
2019-03-04T21:16:49.955Z,69.97
2019-03-04T21:19:23.656Z,70.08
2019-03-04T21:21:57.701Z,70.25
2019-03-04T21:24:31.584Z,70.34
2019-03-04T21:27:14.699Z,70.47
2019-03-04T21:30:27.157Z,70.59
2019-03-04T21:33:30.095Z,70.68
2019-03-04T21:36:24.984Z,70.91
2019-03-04T21:39:08.919Z,71.17
2019-03-04T21:41:48.903Z,71.26
2019-03-04T21:45:07.371Z,71.20
2019-03-04T21:47:44.858Z,71.33
2019-03-04T21:50:21.773Z,71.63
2019-03-04T21:53:05.397Z,71.68
2019-03-04T21:56:09.320Z,71.78
2019-03-04T21:58:44.699Z,71.92
2019-03-04T22:01:28.968Z,72.15
2019-03-04T22:04:06.364Z,72.32
2019-03-04T22:06:40.019Z,72.57
2019-03-04T22:09:17.147Z,72.73
2019-03-04T22:12:01.455Z,72.95
2019-03-04T22:14:36.039Z,73.20
2019-03-04T22:17:18.410Z,73.42
2019-03-04T22:20:05.611Z,73.66
2019-03-04T22:22:39.464Z,73.71
2019-03-04T22:25:14.283Z,73.86
2019-03-04T22:27:48.348Z,73.94
2019-03-04T22:30:21.841Z,74.14
2019-03-04T22:32:56.134Z,74.19
2019-03-04T22:35:30.630Z,74.25
2019-03-04T22:38:09.982Z,74.22
2019-03-04T22:40:45.705Z,74.28
2019-03-04T22:43:18.850Z,74.27
2019-03-04T22:45:52.171Z,74.05
2019-03-04T22:48:24.095Z,74.04
2019-03-04T22:51:12.420Z,73.98
2019-03-04T22:53:45.932Z,73.77
2019-03-04T22:56:19.678Z,73.73
2019-03-04T22:58:52.891Z,73.77
2019-03-04T23:01:54.045Z,73.86
2019-03-04T23:04:59.694Z,74.17
2019-03-04T23:07:55.887Z,74.18
2019-03-04T23:10:46.984Z,74.11
2019-03-04T23:14:00.762Z,74.01
2019-03-04T23:16:34.123Z,74.13
2019-03-04T23:19:07.529Z,74.19
2019-03-04T23:21:49.443Z,74.04
2019-03-04T23:24:22.858Z,73.98
2019-03-04T23:26:55.556Z,74.01
2019-03-04T23:29:37.884Z,73.98
2019-03-04T23:32:11.283Z,73.93
2019-03-04T23:34:44.760Z,73.83
2019-03-04T23:37:18.228Z,73.82
2019-03-04T23:39:51.484Z,73.87
2019-03-04T23:42:34.383Z,74.05
2019-03-04T23:45:20.142Z,74.04
2019-03-04T23:48:06.706Z,73.75
2019-03-04T23:50:40.986Z,73.53
2019-03-04T23:53:14.566Z,73.49
2019-03-04T23:55:47.864Z,73.63
2019-03-04T23:58:36.061Z,73.65
